Angora, Nebraska
Current Conditions -  °F | °C
As of 6:53 PM on Wednesday 26 Nov 2014 (Local Time) from KAIA Reporting Station
Overcast Overcast  
Wind Chill: 19°   Ceiling: 9000
Heat Index: 27°   Visibility: 10mi
Dew Point: 25°   Wind: 7mph
Humidity: 92%   Direction: 210°SSW
Pressure: 30.28"   Gusts: NA
Location:  41.85°N, 103.13°W
Report Text: KAIA 270153Z AUTO 21006KT 10SM SCT042 OVC090 M03/M04 A3028 RMK AO2 SNE17 SLP289 P0000 T10281039
Loading
Personal Weather Stations






























Interactive Weather Map New forecast layout! Learn more

10-Day Weather Forecast

Advertisements
Track Severe Weather on mobile